createdAt,value
2023-04-27T00:00:34.476Z,2271.00
2023-04-27T00:01:34.481Z,2262.00
2023-04-27T00:02:34.634Z,2259.00
2023-04-27T00:03:34.627Z,2245.00
2023-04-27T00:04:34.843Z,2241.00
2023-04-27T00:05:34.686Z,2240.00
2023-04-27T00:06:34.670Z,2237.00
2023-04-27T00:07:34.698Z,2241.00
2023-04-27T00:08:34.760Z,2236.00
2023-04-27T00:09:34.905Z,2254.00
2023-04-27T00:10:34.901Z,2254.00
2023-04-27T00:11:35.150Z,2253.00
2023-04-27T00:12:35.066Z,2252.00
2023-04-27T00:13:35.122Z,2247.00
2023-04-27T00:14:35.163Z,2250.00
2023-04-27T00:15:35.221Z,2251.00
2023-04-27T00:16:35.300Z,2221.00
2023-04-27T00:17:35.380Z,2237.00
2023-04-27T00:18:35.440Z,2235.00
2023-04-27T00:19:35.484Z,2234.00
2023-04-27T00:20:35.529Z,2235.00
2023-04-27T00:21:35.625Z,2221.00
2023-04-27T00:22:35.641Z,2233.00
2023-04-27T00:23:35.703Z,2226.00
2023-04-27T00:24:35.786Z,2226.00
2023-04-27T00:25:36.625Z,2223.00
2023-04-27T00:26:35.896Z,2223.00
2023-04-27T00:27:35.967Z,2224.00
2023-04-27T00:28:36.004Z,2227.00
2023-04-27T00:29:36.061Z,2202.00
2023-04-27T00:30:36.202Z,2208.00
2023-04-27T00:31:36.243Z,2217.00
2023-04-27T00:32:36.338Z,2203.00
2023-04-27T00:33:36.331Z,2209.00
2023-04-27T00:34:36.391Z,2209.00
2023-04-27T00:35:36.450Z,2209.00
2023-04-27T00:36:36.473Z,2195.00
2023-04-27T00:37:36.569Z,2191.00
2023-04-27T00:38:36.659Z,2209.00
2023-04-27T00:39:36.692Z,2184.00
2023-04-27T00:40:36.726Z,2192.00
2023-04-27T00:41:36.758Z,2195.00
2023-04-27T00:42:36.849Z,2189.00
2023-04-27T00:43:36.894Z,2192.00
2023-04-27T00:44:39.283Z,2177.00
2023-04-27T00:45:36.927Z,2193.00
2023-04-27T00:46:36.877Z,2195.00
2023-04-27T00:47:36.895Z,2183.00
2023-04-27T00:48:36.883Z,2172.00
2023-04-27T00:49:36.877Z,2175.00
2023-04-27T00:50:36.857Z,2187.00
2023-04-27T00:51:36.904Z,2188.00
2023-04-27T00:52:36.851Z,2186.00
2023-04-27T00:53:36.870Z,2180.00
2023-04-27T00:54:36.841Z,2174.00
2023-04-27T00:55:36.841Z,2170.00
2023-04-27T00:56:36.822Z,2164.00
2023-04-27T00:57:36.858Z,2183.00
2023-04-27T00:58:36.833Z,2171.00
2023-04-27T00:59:36.826Z,2153.00
2023-04-27T01:00:36.855Z,2149.00
2023-04-27T01:01:36.853Z,2174.00
2023-04-27T01:02:37.082Z,2145.00
2023-04-27T01:03:36.914Z,2163.00
2023-04-27T01:04:36.946Z,2159.00
2023-04-27T01:05:36.790Z,2158.00
2023-04-27T01:06:36.797Z,2149.00
2023-04-27T01:07:36.767Z,2152.00
2023-04-27T01:08:36.731Z,2142.00
2023-04-27T01:09:36.728Z,2159.00
2023-04-27T01:10:36.735Z,2147.00
2023-04-27T01:11:36.721Z,2148.00
2023-04-27T01:12:36.742Z,2159.00
2023-04-27T01:13:36.734Z,2151.00
2023-04-27T01:14:36.713Z,2131.00
2023-04-27T01:15:36.809Z,2147.00
2023-04-27T01:16:36.709Z,2137.00
2023-04-27T01:17:36.767Z,2141.00
2023-04-27T01:18:36.696Z,2132.00
2023-04-27T01:19:36.670Z,2131.00
2023-04-27T01:20:36.720Z,2127.00
2023-04-27T01:21:36.655Z,2128.00
2023-04-27T01:22:36.654Z,2127.00
2023-04-27T01:23:36.721Z,2129.00
2023-04-27T01:24:36.720Z,2124.00
2023-04-27T01:25:36.781Z,2128.00
2023-04-27T01:26:36.859Z,2122.00
2023-04-27T01:27:36.936Z,2126.00
2023-04-27T01:28:36.946Z,2112.00
2023-04-27T01:29:37.041Z,2123.00
2023-04-27T01:30:37.104Z,2126.00
2023-04-27T01:31:37.237Z,2125.00
2023-04-27T01:32:37.217Z,2099.00
2023-04-27T01:33:37.234Z,2111.00
2023-04-27T01:34:37.282Z,2110.00
2023-04-27T01:35:37.327Z,2112.00
2023-04-27T01:36:37.408Z,2096.00
2023-04-27T01:37:37.498Z,2122.00
2023-04-27T01:38:37.531Z,2111.00
2023-04-27T01:39:37.593Z,2099.00
2023-04-27T01:40:37.633Z,2107.00
2023-04-27T01:41:37.679Z,2110.00
2023-04-27T01:42:37.770Z,2097.00
2023-04-27T01:43:37.825Z,2093.00
2023-04-27T01:44:37.955Z,2094.00
2023-04-27T01:45:38.000Z,2101.00
2023-04-27T01:46:38.067Z,2085.00
2023-04-27T01:47:38.249Z,2088.00
2023-04-27T01:48:38.078Z,2098.00
2023-04-27T01:49:38.162Z,2084.00
2023-04-27T01:50:38.221Z,2103.00
2023-04-27T01:51:38.242Z,2089.00
2023-04-27T01:52:38.330Z,2083.00
2023-04-27T01:53:38.346Z,2076.00
2023-04-27T01:54:38.412Z,2084.00
2023-04-27T01:55:38.454Z,2083.00
2023-04-27T01:56:38.567Z,2063.00
2023-04-27T01:57:38.594Z,2068.00
2023-04-27T01:58:38.666Z,2060.00
2023-04-27T01:59:38.700Z,2070.00
2023-04-27T02:00:38.757Z,2070.00
2023-04-27T02:01:38.856Z,2063.00
2023-04-27T02:02:38.991Z,2078.00
2023-04-27T02:03:39.010Z,2063.00
2023-04-27T02:04:39.154Z,2060.00
2023-04-27T02:05:39.125Z,2060.00
2023-04-27T02:06:39.170Z,2064.00
2023-04-27T02:07:39.182Z,2071.00
2023-04-27T02:08:39.274Z,2057.00
2023-04-27T02:09:39.283Z,2054.00
2023-04-27T02:10:39.368Z,2056.00
2023-04-27T02:11:39.445Z,2059.00
2023-04-27T02:12:39.458Z,2048.00
2023-04-27T02:13:39.526Z,2054.00
2023-04-27T02:14:39.596Z,2049.00
2023-04-27T02:15:39.660Z,2050.00
2023-04-27T02:16:39.748Z,2049.00
2023-04-27T02:17:39.827Z,2039.00
2023-04-27T02:18:39.828Z,2047.00
2023-04-27T02:19:39.912Z,2042.00
2023-04-27T02:20:39.988Z,2037.00
2023-04-27T02:21:40.066Z,2039.00
2023-04-27T02:22:40.060Z,2044.00
2023-04-27T02:23:40.186Z,2037.00
2023-04-27T02:24:40.246Z,2043.00
2023-04-27T02:25:40.323Z,2031.00
2023-04-27T02:26:40.383Z,2024.00
2023-04-27T02:27:40.391Z,2039.00
2023-04-27T02:28:40.466Z,2034.00
2023-04-27T02:29:40.493Z,2029.00
2023-04-27T02:30:40.582Z,2027.00
2023-04-27T02:31:40.663Z,2015.00
2023-04-27T02:32:40.736Z,2026.00
2023-04-27T02:33:40.813Z,2023.00
2023-04-27T02:34:40.790Z,2025.00
2023-04-27T02:35:40.912Z,2016.00
2023-04-27T02:36:40.921Z,2010.00
2023-04-27T02:37:40.989Z,2020.00
2023-04-27T02:38:41.088Z,2021.00
2023-04-27T02:39:41.126Z,2021.00
2023-04-27T02:40:41.193Z,2015.00
2023-04-27T02:41:41.245Z,2009.00
2023-04-27T02:42:41.312Z,2018.00
2023-04-27T02:43:41.375Z,2009.00
2023-04-27T02:44:41.439Z,1997.00
2023-04-27T02:45:41.504Z,2000.00
2023-04-27T02:46:41.605Z,2012.00
2023-04-27T02:47:41.696Z,1996.00
2023-04-27T02:48:41.729Z,1997.00
2023-04-27T02:49:41.718Z,1994.00
2023-04-27T02:50:41.889Z,1996.00
2023-04-27T02:51:42.089Z,1992.00
2023-04-27T02:52:41.945Z,1989.00
2023-04-27T02:53:41.963Z,1989.00
2023-04-27T02:54:42.039Z,1989.00
2023-04-27T02:55:42.087Z,1991.00
2023-04-27T02:56:42.120Z,1986.00
2023-04-27T02:57:42.189Z,1984.00
2023-04-27T02:58:42.266Z,1990.00
2023-04-27T02:59:42.314Z,1988.00
2023-04-27T03:00:42.416Z,1986.00
2023-04-27T03:01:42.535Z,1970.00
2023-04-27T03:02:42.689Z,1983.00
2023-04-27T03:03:42.669Z,1973.00
2023-04-27T03:04:42.630Z,1978.00
2023-04-27T03:05:42.680Z,1985.00
2023-04-27T03:06:42.685Z,1969.00
2023-04-27T03:07:42.867Z,1970.00
2023-04-27T03:08:42.815Z,1976.00
2023-04-27T03:09:42.871Z,1972.00
2023-04-27T03:10:42.945Z,1973.00
2023-04-27T03:11:43.008Z,1961.00
2023-04-27T03:12:43.076Z,1962.00
2023-04-27T03:13:43.186Z,1959.00
2023-04-27T03:14:43.171Z,1964.00
2023-04-27T03:15:43.242Z,1964.00
2023-04-27T03:16:43.399Z,1960.00
2023-04-27T03:17:43.386Z,1949.00
2023-04-27T03:18:43.404Z,1949.00
2023-04-27T03:19:43.482Z,1944.00
2023-04-27T03:20:43.540Z,1952.00
2023-04-27T03:21:43.552Z,1959.00
2023-04-27T03:22:43.606Z,1942.00
2023-04-27T03:23:43.654Z,1948.00
2023-04-27T03:24:43.766Z,1949.00
2023-04-27T03:25:43.821Z,1948.00
2023-04-27T03:26:43.830Z,1944.00
2023-04-27T03:27:43.917Z,1954.00
2023-04-27T03:28:43.999Z,1947.00
2023-04-27T03:29:44.010Z,1939.00
2023-04-27T03:30:44.081Z,1935.00
2023-04-27T03:31:44.175Z,1946.00
2023-04-27T03:32:45.572Z,1941.00
2023-04-27T03:33:44.180Z,1951.00
2023-04-27T03:34:44.185Z,1953.00
2023-04-27T03:35:44.231Z,1939.00
2023-04-27T03:36:44.151Z,1935.00
2023-04-27T03:37:44.152Z,1927.00
2023-04-27T03:38:44.123Z,1927.00
2023-04-27T03:39:44.143Z,1925.00
2023-04-27T03:40:44.125Z,1913.00
2023-04-27T03:41:44.123Z,1920.00
2023-04-27T03:42:44.112Z,1916.00
2023-04-27T03:43:44.102Z,1911.00
2023-04-27T03:44:44.101Z,1924.00
2023-04-27T03:45:44.148Z,1923.00
2023-04-27T03:46:44.138Z,1910.00
2023-04-27T03:47:44.137Z,1925.00
2023-04-27T03:48:44.095Z,1912.00
2023-04-27T03:49:44.092Z,1932.00
2023-04-27T03:50:44.045Z,1914.00
2023-04-27T03:51:44.102Z,1914.00
2023-04-27T03:52:44.121Z,1900.00
2023-04-27T03:53:44.016Z,1908.00
2023-04-27T03:54:44.009Z,1901.00
2023-04-27T03:55:44.039Z,1904.00
2023-04-27T03:56:44.109Z,1899.00
2023-04-27T03:57:44.013Z,1902.00
2023-04-27T03:58:44.016Z,1894.00
2023-04-27T03:59:44.002Z,1906.00
2023-04-27T04:00:43.982Z,1890.00
2023-04-27T04:01:44.037Z,1899.00
2023-04-27T04:02:44.171Z,1885.00
2023-04-27T04:03:44.194Z,1885.00
2023-04-27T04:04:44.086Z,1907.00
2023-04-27T04:05:43.976Z,1887.00
2023-04-27T04:06:43.987Z,1881.00
2023-04-27T04:07:43.957Z,1887.00
2023-04-27T04:08:43.928Z,1882.00
2023-04-27T04:09:43.990Z,1895.00
2023-04-27T04:10:44.013Z,1881.00
2023-04-27T04:11:44.003Z,1877.00
2023-04-27T04:12:44.091Z,1886.00
2023-04-27T04:13:44.126Z,1880.00
2023-04-27T04:14:44.176Z,1879.00
2023-04-27T04:15:44.297Z,1891.00
2023-04-27T04:16:44.313Z,1878.00
2023-04-27T04:17:44.485Z,1874.00
2023-04-27T04:18:44.423Z,1863.00
2023-04-27T04:19:44.494Z,1872.00
2023-04-27T04:20:44.584Z,1866.00
2023-04-27T04:21:44.626Z,1863.00
2023-04-27T04:22:44.631Z,1860.00
2023-04-27T04:23:44.750Z,1861.00
2023-04-27T04:24:44.776Z,1873.00
2023-04-27T04:25:44.828Z,1867.00
2023-04-27T04:26:44.920Z,1849.00
2023-04-27T04:27:45.111Z,1859.00
2023-04-27T04:28:44.998Z,1871.00
2023-04-27T04:29:45.066Z,1855.00
2023-04-27T04:30:45.148Z,1853.00
2023-04-27T04:31:45.318Z,1857.00
2023-04-27T04:32:45.337Z,1859.00
2023-04-27T04:33:45.308Z,1847.00
2023-04-27T04:34:45.313Z,1846.00
2023-04-27T04:35:45.399Z,1849.00
2023-04-27T04:36:45.410Z,1840.00
2023-04-27T04:37:45.502Z,1842.00
2023-04-27T04:38:45.500Z,1829.00
2023-04-27T04:39:45.582Z,1841.00
2023-04-27T04:40:46.178Z,1845.00
2023-04-27T04:41:45.652Z,1843.00
2023-04-27T04:42:45.766Z,1841.00
2023-04-27T04:43:45.733Z,1831.00
2023-04-27T04:44:45.760Z,1846.00
2023-04-27T04:45:45.826Z,1836.00
2023-04-27T04:46:45.897Z,1838.00
2023-04-27T04:47:45.973Z,1830.00
2023-04-27T04:48:46.005Z,1840.00
2023-04-27T04:49:46.043Z,1826.00
2023-04-27T04:50:46.141Z,1828.00
2023-04-27T04:51:46.148Z,1828.00
2023-04-27T04:52:46.213Z,1833.00
2023-04-27T04:53:46.346Z,1822.00
2023-04-27T04:54:46.322Z,1824.00
2023-04-27T04:55:46.382Z,1831.00
2023-04-27T04:56:46.447Z,1817.00
2023-04-27T04:57:46.468Z,1817.00
2023-04-27T04:58:46.494Z,1820.00
2023-04-27T04:59:46.523Z,1822.00
2023-04-27T05:00:46.555Z,1802.00
2023-04-27T05:01:46.703Z,1804.00
2023-04-27T05:02:46.900Z,1809.00
2023-04-27T05:03:46.752Z,1816.00
2023-04-27T05:04:46.961Z,1814.00
2023-04-27T05:05:46.805Z,1810.00
2023-04-27T05:06:46.839Z,1800.00
2023-04-27T05:07:46.904Z,1801.00
2023-04-27T05:08:46.913Z,1800.00
2023-04-27T05:09:46.948Z,1789.00
2023-04-27T05:10:47.009Z,1791.00
2023-04-27T05:11:47.003Z,1799.00
2023-04-27T05:12:47.074Z,1799.00
2023-04-27T05:13:47.125Z,1797.00
2023-04-27T05:14:47.136Z,1795.00
2023-04-27T05:15:47.223Z,1793.00
2023-04-27T05:16:47.234Z,1795.00
2023-04-27T05:17:47.285Z,1795.00
2023-04-27T05:18:47.298Z,1791.00
2023-04-27T05:19:47.463Z,1788.00
2023-04-27T05:20:47.393Z,1787.00
2023-04-27T05:21:47.425Z,1790.00
2023-04-27T05:22:47.474Z,1779.00
2023-04-27T05:23:47.570Z,1786.00
2023-04-27T05:24:47.584Z,1785.00
2023-04-27T05:25:47.655Z,1785.00
2023-04-27T05:26:47.721Z,1789.00
2023-04-27T05:27:47.763Z,1779.00
2023-04-27T05:28:47.803Z,1792.00
2023-04-27T05:29:47.869Z,1784.00
2023-04-27T05:30:48.026Z,1772.00
2023-04-27T05:31:47.994Z,1775.00
2023-04-27T05:32:48.196Z,1760.00
2023-04-27T05:33:48.052Z,1767.00
2023-04-27T05:34:49.527Z,1782.00
2023-04-27T05:35:48.178Z,1793.00
2023-04-27T05:36:48.230Z,1799.00
2023-04-27T05:37:48.331Z,1781.00
2023-04-27T05:38:48.313Z,1731.00
2023-04-27T05:39:48.437Z,1687.00
2023-04-27T05:40:48.507Z,1736.00
2023-04-27T05:41:48.497Z,1777.00
2023-04-27T05:42:48.782Z,1845.00
2023-04-27T05:43:48.614Z,1856.00
2023-04-27T05:44:48.695Z,1879.00
2023-04-27T05:45:48.808Z,1934.00
2023-04-27T05:46:48.756Z,1957.00
2023-04-27T05:47:49.019Z,2037.00
2023-04-27T05:48:48.913Z,2035.00
2023-04-27T05:49:48.932Z,2037.00
2023-04-27T05:50:48.895Z,2064.00
2023-04-27T05:51:48.909Z,2113.00
2023-04-27T05:52:49.359Z,2157.00
2023-04-27T05:53:48.942Z,2174.00
2023-04-27T05:54:48.996Z,2187.00
2023-04-27T05:55:48.951Z,2215.00
2023-04-27T05:56:48.984Z,2285.00
2023-04-27T05:57:57.166Z,2324.00
2023-04-27T05:58:50.013Z,2334.00
2023-04-27T05:59:48.956Z,2422.00
2023-04-27T06:00:48.986Z,2478.00
2023-04-27T06:01:49.106Z,2573.00
2023-04-27T06:02:49.156Z,2696.00
2023-04-27T06:03:49.121Z,2606.00
2023-04-27T06:04:48.916Z,2644.00
2023-04-27T06:05:49.410Z,2903.00
2023-04-27T06:06:48.924Z,2924.00
2023-04-27T06:07:48.929Z,2859.00
2023-04-27T06:08:48.938Z,3026.00
2023-04-27T06:09:48.994Z,3150.00
2023-04-27T06:10:49.003Z,3046.00
2023-04-27T06:11:49.023Z,2906.00
2023-04-27T06:12:49.142Z,2845.00
2023-04-27T06:13:49.145Z,2847.00
2023-04-27T06:14:49.358Z,4194.00
2023-04-27T06:15:49.308Z,3716.00
2023-04-27T06:16:49.293Z,3085.00
2023-04-27T06:17:49.383Z,3226.00
2023-04-27T06:18:49.434Z,3045.00
2023-04-27T06:19:49.521Z,3148.00
2023-04-27T06:20:49.583Z,3166.00
2023-04-27T06:21:49.645Z,3036.00
2023-04-27T06:22:49.716Z,2976.00
2023-04-27T06:23:49.762Z,2926.00
2023-04-27T06:24:49.820Z,2861.00
2023-04-27T06:25:49.874Z,2842.00
2023-04-27T06:26:49.959Z,2831.00
2023-04-27T06:27:49.969Z,2843.00
2023-04-27T06:28:50.010Z,2872.00
2023-04-27T06:29:50.090Z,2880.00
2023-04-27T06:30:50.869Z,2924.00
2023-04-27T06:31:50.162Z,2931.00
2023-04-27T06:32:50.256Z,2910.00
2023-04-27T06:33:50.331Z,2921.00
2023-04-27T06:34:50.306Z,2959.00
2023-04-27T06:35:50.308Z,2945.00
2023-04-27T06:36:50.382Z,2963.00
2023-04-27T06:37:50.410Z,2909.00
2023-04-27T06:38:50.506Z,2912.00
2023-04-27T06:39:50.486Z,2889.00
2023-04-27T06:40:50.556Z,2898.00
2023-04-27T06:41:50.616Z,2902.00
2023-04-27T06:42:53.768Z,2875.00
2023-04-27T06:43:50.770Z,2903.00
2023-04-27T06:44:50.631Z,2864.00
2023-04-27T06:45:50.680Z,2815.00
2023-04-27T06:46:51.006Z,2794.00
2023-04-27T06:47:50.611Z,2773.00
2023-04-27T06:48:50.605Z,2783.00
2023-04-27T06:49:50.593Z,2713.00
2023-04-27T06:50:50.774Z,2733.00
2023-04-27T06:51:50.571Z,2714.00
2023-04-27T06:52:50.571Z,2689.00
2023-04-27T06:53:50.594Z,2679.00
2023-04-27T06:54:50.579Z,2671.00
2023-04-27T06:55:50.553Z,2647.00
2023-04-27T06:56:50.545Z,2642.00
2023-04-27T06:57:50.554Z,2625.00
2023-04-27T06:58:50.606Z,2618.00
2023-04-27T06:59:50.548Z,2606.00
2023-04-27T07:00:50.841Z,2603.00
2023-04-27T07:01:50.591Z,2591.00
2023-04-27T07:02:50.721Z,2598.00
2023-04-27T07:03:50.701Z,2575.00
2023-04-27T07:04:50.551Z,2593.00
2023-04-27T07:05:50.624Z,2571.00
2023-04-27T07:06:50.459Z,2571.00
2023-04-27T07:07:50.467Z,2577.00
2023-04-27T07:08:50.549Z,2564.00
2023-04-27T07:09:50.453Z,2554.00
2023-04-27T07:10:50.520Z,2538.00
2023-04-27T07:11:50.442Z,2489.00
2023-04-27T07:12:50.448Z,2418.00
2023-04-27T07:13:50.403Z,2216.00
2023-04-27T07:14:50.423Z,1955.00
2023-04-27T07:15:50.469Z,1796.00
2023-04-27T07:16:50.401Z,1736.00
2023-04-27T07:17:50.419Z,1636.00
2023-04-27T07:18:50.831Z,1572.00
2023-04-27T07:19:50.421Z,1473.00
2023-04-27T07:20:50.547Z,1450.00
2023-04-27T07:21:50.362Z,1432.00
2023-04-27T07:22:50.377Z,1406.00
2023-04-27T07:23:50.344Z,1375.00
2023-04-27T07:24:50.412Z,1336.00
2023-04-27T07:25:50.793Z,1356.00
2023-04-27T07:26:50.348Z,1382.00
2023-04-27T07:27:50.314Z,1424.00
2023-04-27T07:28:50.346Z,1438.00
2023-04-27T07:29:50.401Z,1443.00
2023-04-27T07:30:50.774Z,1453.00
2023-04-27T07:31:52.181Z,1480.00
2023-04-27T07:32:50.416Z,1511.00
2023-04-27T07:33:50.325Z,1526.00
2023-04-27T07:34:53.970Z,1629.00
2023-04-27T07:35:50.799Z,1632.00
2023-04-27T07:36:50.277Z,1637.00
2023-04-27T07:37:50.298Z,1663.00
2023-04-27T07:38:50.278Z,1700.00
2023-04-27T07:39:50.361Z,1755.00
2023-04-27T07:40:50.404Z,1892.00
2023-04-27T07:41:50.362Z,1877.00
2023-04-27T07:42:50.279Z,1888.00
2023-04-27T07:43:50.321Z,1901.00
2023-04-27T07:44:50.315Z,1927.00
2023-04-27T07:45:50.304Z,1936.00
2023-04-27T07:46:50.222Z,1986.00
2023-04-27T07:47:50.249Z,1990.00
2023-04-27T07:48:50.304Z,1994.00
2023-04-27T07:49:50.232Z,2017.00
2023-04-27T07:50:50.294Z,2034.00
2023-04-27T07:51:50.158Z,2030.00
2023-04-27T07:52:50.157Z,2045.00
2023-04-27T07:53:50.152Z,2036.00
2023-04-27T07:54:50.161Z,2045.00
2023-04-27T07:55:50.379Z,2057.00
2023-04-27T07:56:50.118Z,2057.00
2023-04-27T07:57:50.105Z,2063.00
2023-04-27T07:58:50.119Z,2061.00
2023-04-27T07:59:50.105Z,2066.00
2023-04-27T08:00:50.097Z,2079.00
2023-04-27T08:01:50.182Z,2086.00
2023-04-27T08:02:50.368Z,2083.00
2023-04-27T08:03:50.491Z,2099.00
2023-04-27T08:04:50.377Z,2096.00
2023-04-27T08:05:50.509Z,2088.00
2023-04-27T08:06:50.619Z,2107.00
2023-04-27T08:07:50.179Z,2101.00
2023-04-27T08:08:50.090Z,2109.00
2023-04-27T08:09:50.032Z,2099.00
2023-04-27T08:10:50.189Z,2097.00
2023-04-27T08:11:50.039Z,2107.00
2023-04-27T08:12:50.012Z,2106.00
2023-04-27T08:13:50.035Z,2107.00
2023-04-27T08:14:49.988Z,2107.00
2023-04-27T08:15:49.998Z,2104.00
2023-04-27T08:16:50.054Z,2096.00
2023-04-27T08:17:50.001Z,2091.00
2023-04-27T08:18:49.954Z,2107.00
2023-04-27T08:19:49.957Z,2104.00
2023-04-27T08:20:49.957Z,2107.00
2023-04-27T08:21:49.941Z,2090.00
2023-04-27T08:22:49.953Z,2084.00
2023-04-27T08:23:49.933Z,2100.00
2023-04-27T08:24:49.926Z,2098.00
2023-04-27T08:25:49.941Z,2117.00
2023-04-27T08:26:50.051Z,2099.00
2023-04-27T08:27:49.944Z,2092.00
2023-04-27T08:28:49.960Z,2095.00
2023-04-27T08:29:49.881Z,2101.00
2023-04-27T08:30:49.887Z,2089.00
2023-04-27T08:31:49.946Z,2096.00
2023-04-27T08:32:50.815Z,2081.00
2023-04-27T08:33:49.898Z,2087.00
2023-04-27T08:34:49.858Z,2078.00
2023-04-27T08:35:50.302Z,2089.00
2023-04-27T08:36:49.914Z,2080.00
2023-04-27T08:37:49.904Z,2077.00
2023-04-27T08:38:49.886Z,2069.00
2023-04-27T08:39:49.853Z,2046.00
2023-04-27T08:40:49.892Z,2018.00
2023-04-27T08:41:49.926Z,1996.00
2023-04-27T08:42:49.832Z,1993.00
2023-04-27T08:43:50.005Z,1989.00
2023-04-27T08:44:49.913Z,1901.00
2023-04-27T08:45:49.947Z,1959.00
2023-04-27T08:46:49.952Z,1864.00
2023-04-27T08:47:49.967Z,1822.00
2023-04-27T08:48:49.927Z,1786.00
2023-04-27T08:49:50.015Z,1759.00
2023-04-27T08:50:50.079Z,1725.00
2023-04-27T08:51:49.999Z,1713.00
2023-04-27T08:52:50.052Z,1684.00
2023-04-27T08:53:50.130Z,1654.00
2023-04-27T08:54:50.100Z,1625.00
2023-04-27T08:55:50.189Z,1614.00
2023-04-27T08:56:50.179Z,1616.00
2023-04-27T08:57:50.204Z,1568.00
2023-04-27T08:58:50.230Z,1549.00
2023-04-27T08:59:50.284Z,1532.00
2023-04-27T09:00:52.451Z,1529.00
2023-04-27T09:01:50.364Z,1498.00
2023-04-27T09:02:50.471Z,1468.00
2023-04-27T09:03:50.538Z,1447.00
2023-04-27T09:04:50.608Z,1402.00
2023-04-27T09:06:02.986Z,1386.00
2023-04-27T09:06:51.522Z,1386.00
2023-04-27T09:07:50.485Z,1366.00
2023-04-27T09:08:50.592Z,1334.00
2023-04-27T09:09:50.490Z,1344.00
2023-04-27T09:10:50.521Z,1310.00
2023-04-27T09:11:50.452Z,1280.00
2023-04-27T09:12:50.468Z,1255.00
2023-04-27T09:13:50.440Z,1225.00
2023-04-27T09:14:50.420Z,1219.00
2023-04-27T09:15:50.493Z,1189.00
2023-04-27T09:16:50.487Z,1165.00
2023-04-27T09:17:50.446Z,1169.00
2023-04-27T09:18:50.410Z,1146.00
2023-04-27T09:19:50.405Z,1141.00
2023-04-27T09:20:50.412Z,1130.00
2023-04-27T09:21:50.442Z,1127.00
2023-04-27T09:22:50.597Z,1119.00
2023-04-27T09:23:50.544Z,1115.00
2023-04-27T09:24:50.605Z,1074.00
2023-04-27T09:25:50.629Z,1116.00
2023-04-27T09:26:50.729Z,1113.00
2023-04-27T09:27:50.766Z,1082.00
2023-04-27T09:28:50.808Z,1089.00
2023-04-27T09:29:50.786Z,1059.00
2023-04-27T09:30:50.831Z,1053.00
2023-04-27T09:31:50.948Z,1008.00
2023-04-27T09:32:50.965Z,877.00
2023-04-27T09:33:50.988Z,808.00
2023-04-27T09:34:51.036Z,870.00
2023-04-27T09:35:51.101Z,893.00
2023-04-27T09:36:51.198Z,1027.00
2023-04-27T09:37:51.198Z,1139.00
2023-04-27T09:38:51.356Z,1167.00
2023-04-27T09:39:51.300Z,1148.00
2023-04-27T09:40:51.321Z,1248.00
2023-04-27T09:41:51.376Z,1301.00
2023-04-27T09:42:51.379Z,1325.00
2023-04-27T09:43:51.830Z,1387.00
2023-04-27T09:44:51.374Z,1417.00
2023-04-27T09:45:51.420Z,1452.00
2023-04-27T09:46:51.467Z,1501.00
2023-04-27T09:47:51.533Z,1535.00
2023-04-27T09:48:51.392Z,1554.00
2023-04-27T09:49:51.383Z,1583.00
2023-04-27T09:50:51.352Z,1606.00
2023-04-27T09:51:51.350Z,1629.00
2023-04-27T09:52:51.353Z,1647.00
2023-04-27T09:53:51.364Z,1675.00
2023-04-27T09:54:51.389Z,1696.00
2023-04-27T09:55:51.776Z,1719.00
2023-04-27T09:56:51.460Z,1724.00
2023-04-27T09:57:51.551Z,1762.00
2023-04-27T09:58:51.675Z,1768.00
2023-04-27T09:59:51.665Z,1796.00
2023-04-27T10:00:51.694Z,1812.00
2023-04-27T10:01:51.768Z,1834.00
2023-04-27T10:02:53.625Z,1856.00
2023-04-27T10:03:51.972Z,1870.00
2023-04-27T10:04:52.077Z,1878.00
2023-04-27T10:05:51.987Z,1901.00
2023-04-27T10:06:52.001Z,1918.00
2023-04-27T10:07:52.038Z,1926.00
2023-04-27T10:08:52.069Z,1941.00
2023-04-27T10:09:52.113Z,1965.00
2023-04-27T10:10:52.133Z,1990.00
2023-04-27T10:11:52.200Z,1999.00
2023-04-27T10:12:52.295Z,2008.00
2023-04-27T10:13:53.123Z,2033.00
2023-04-27T10:14:52.285Z,2026.00
2023-04-27T10:15:52.301Z,1962.00
2023-04-27T10:16:52.389Z,1995.00
2023-04-27T10:17:52.397Z,1989.00
2023-04-27T10:18:52.415Z,2004.00
2023-04-27T10:19:54.299Z,2021.00
2023-04-27T10:20:52.625Z,2028.00
2023-04-27T10:21:52.687Z,2047.00
2023-04-27T10:22:52.718Z,2059.00
2023-04-27T10:23:52.742Z,2061.00
2023-04-27T10:24:52.856Z,2062.00
2023-04-27T10:25:52.825Z,2107.00
2023-04-27T10:26:52.855Z,2109.00
2023-04-27T10:27:52.921Z,2083.00
2023-04-27T10:28:52.985Z,2096.00
2023-04-27T10:29:53.370Z,1994.00
2023-04-27T10:30:53.123Z,1818.00
2023-04-27T10:31:53.187Z,1679.00
2023-04-27T10:32:53.357Z,1215.00
2023-04-27T10:33:53.228Z,1273.00
2023-04-27T10:34:53.290Z,1287.00
2023-04-27T10:35:53.369Z,1298.00
2023-04-27T10:36:53.392Z,1404.00
2023-04-27T10:37:53.455Z,1410.00
2023-04-27T10:38:53.531Z,1443.00
2023-04-27T10:39:54.894Z,1448.00
2023-04-27T10:40:53.645Z,1440.00
2023-04-27T10:41:53.893Z,1541.00
2023-04-27T10:42:53.829Z,1598.00
2023-04-27T10:43:53.768Z,1626.00
2023-04-27T10:44:53.846Z,1645.00
2023-04-27T10:45:53.894Z,1658.00
2023-04-27T10:46:53.886Z,1670.00
2023-04-27T10:47:54.135Z,1644.00
2023-04-27T10:48:53.977Z,1674.00
2023-04-27T10:49:54.008Z,1696.00
2023-04-27T10:50:54.006Z,1519.00
2023-04-27T10:51:54.090Z,1520.00
2023-04-27T10:52:54.091Z,1538.00
2023-04-27T10:53:54.131Z,1564.00
2023-04-27T10:54:54.158Z,1583.00
2023-04-27T10:55:54.231Z,1620.00
2023-04-27T10:56:54.229Z,1627.00
2023-04-27T10:57:54.324Z,1640.00
2023-04-27T10:58:54.274Z,1641.00
2023-04-27T10:59:54.336Z,1658.00
2023-04-27T11:00:54.414Z,1662.00
2023-04-27T11:01:54.437Z,1611.00
2023-04-27T11:02:54.562Z,1573.00
2023-04-27T11:03:54.554Z,1588.00
2023-04-27T11:04:54.544Z,1504.00
2023-04-27T11:05:54.559Z,1508.00
2023-04-27T11:06:54.625Z,1538.00
2023-04-27T11:07:54.677Z,1566.00
2023-04-27T11:08:54.703Z,1577.00
2023-04-27T11:09:54.797Z,1563.00
2023-04-27T11:10:54.810Z,1519.00
2023-04-27T11:11:54.863Z,1428.00
2023-04-27T11:12:54.935Z,1362.00
2023-04-27T11:13:54.969Z,1264.00
2023-04-27T11:14:55.022Z,1354.00
2023-04-27T11:15:55.103Z,1373.00
2023-04-27T11:16:55.110Z,1442.00
2023-04-27T11:17:55.177Z,1536.00
2023-04-27T11:18:55.207Z,1583.00
2023-04-27T11:19:55.256Z,1534.00
2023-04-27T11:20:55.882Z,1568.00
2023-04-27T11:21:55.866Z,1621.00
2023-04-27T11:22:55.402Z,1657.00
2023-04-27T11:23:55.460Z,1678.00
2023-04-27T11:24:55.879Z,1707.00
2023-04-27T11:25:55.557Z,1728.00
2023-04-27T11:26:55.864Z,1732.00
2023-04-27T11:27:55.676Z,1717.00
2023-04-27T11:28:55.695Z,1719.00
2023-04-27T11:29:55.872Z,1720.00
2023-04-27T11:30:55.808Z,1726.00
2023-04-27T11:31:56.014Z,1742.00
2023-04-27T11:32:55.936Z,1732.00
2023-04-27T11:33:56.275Z,1729.00
2023-04-27T11:34:58.422Z,1738.00
2023-04-27T11:35:55.992Z,1750.00
2023-04-27T11:37:03.694Z,1744.00
2023-04-27T11:37:56.975Z,1746.00
2023-04-27T11:38:55.932Z,1746.00
2023-04-27T11:39:56.031Z,1745.00
2023-04-27T11:40:55.910Z,1745.00
2023-04-27T11:41:56.041Z,1745.00
2023-04-27T11:42:55.955Z,1746.00
2023-04-27T11:43:55.894Z,1739.00
2023-04-27T11:44:55.898Z,1739.00
2023-04-27T11:45:55.901Z,1731.00
2023-04-27T11:46:55.979Z,1728.00
2023-04-27T11:47:55.977Z,1732.00
2023-04-27T11:48:55.896Z,1734.00
2023-04-27T11:49:55.929Z,1719.00
2023-04-27T11:50:55.971Z,1707.00
2023-04-27T11:51:56.050Z,1701.00
2023-04-27T11:52:56.101Z,1682.00
2023-04-27T11:53:56.134Z,1688.00
2023-04-27T11:54:56.389Z,1669.00
2023-04-27T11:55:56.240Z,1659.00
2023-04-27T11:56:56.314Z,1649.00
2023-04-27T11:57:56.345Z,1640.00
2023-04-27T11:58:56.400Z,1628.00
2023-04-27T11:59:56.466Z,1632.00
2023-04-27T12:00:56.494Z,1595.00
2023-04-27T12:01:56.550Z,1603.00
2023-04-27T12:02:56.837Z,1595.00
2023-04-27T12:03:57.632Z,1577.00
2023-04-27T12:04:57.042Z,1576.00
2023-04-27T12:06:04.074Z,1548.00